createdAt,value
2022-12-17T00:02:08.310Z,-3.20
2022-12-17T00:37:12.449Z,-3.20
2022-12-17T00:40:00.033Z,-3.20
2022-12-17T00:42:47.793Z,-3.20
2022-12-17T00:45:35.689Z,-3.20
2022-12-17T00:48:21.729Z,-3.20
2022-12-17T00:51:07.215Z,-3.20
2022-12-17T00:53:52.795Z,-3.30
2022-12-17T00:56:39.909Z,-3.20
2022-12-17T00:59:25.374Z,-3.20
2022-12-17T01:02:11.488Z,-3.20
2022-12-17T01:04:57.238Z,-3.30
2022-12-17T01:07:43.063Z,-3.30
2022-12-17T01:10:28.596Z,-3.20
2022-12-17T01:13:29.971Z,-3.30
2022-12-17T01:16:21.561Z,-3.20
2022-12-17T01:19:07.234Z,-3.30
2022-12-17T01:21:53.383Z,-3.20
2022-12-17T01:24:35.446Z,-3.30
2022-12-17T01:27:19.469Z,-3.30
2022-12-17T01:30:06.284Z,-3.20
2022-12-17T01:32:52.503Z,-3.30
2022-12-17T01:35:38.121Z,-3.30
2022-12-17T01:38:30.326Z,-3.30
2022-12-17T01:41:15.830Z,-3.30
2022-12-17T01:44:01.269Z,-3.30
2022-12-17T01:46:52.389Z,-3.30
2022-12-17T01:49:43.470Z,-3.30
2022-12-17T01:52:30.864Z,-3.30
2022-12-17T01:55:16.377Z,-3.30
2022-12-17T01:58:02.731Z,-3.40
2022-12-17T02:00:48.292Z,-3.40
2022-12-17T02:03:37.619Z,-3.40
2022-12-17T02:06:30.283Z,-3.40
2022-12-17T02:09:25.790Z,-3.40
2022-12-17T02:12:27.610Z,-3.50
2022-12-17T02:15:19.729Z,-3.40
2022-12-17T02:18:10.287Z,-3.40
2022-12-17T02:21:00.874Z,-3.40
2022-12-17T02:23:56.552Z,-3.40
2022-12-17T02:26:54.779Z,-3.40
2022-12-17T02:29:42.996Z,-3.40
2022-12-17T02:32:30.466Z,-3.40
2022-12-17T02:35:17.319Z,-3.40
2022-12-17T02:38:05.246Z,-3.40
2022-12-17T02:40:53.242Z,-3.40
2022-12-17T02:43:45.341Z,-3.40
2022-12-17T02:46:29.362Z,-3.40
2022-12-17T02:49:15.354Z,-3.40
2022-12-17T02:52:11.535Z,-3.40
2022-12-17T02:54:57.021Z,-3.50
2022-12-17T02:57:44.097Z,-3.40
2022-12-17T03:00:35.054Z,-3.40
2022-12-17T03:03:20.957Z,-3.50
2022-12-17T03:06:14.990Z,-3.40
2022-12-17T03:09:01.080Z,-3.50
2022-12-17T03:11:47.849Z,-3.40
2022-12-17T03:14:33.865Z,-3.40
2022-12-17T03:17:21.216Z,-3.40
2022-12-17T03:20:06.797Z,-3.50
2022-12-17T03:22:52.741Z,-3.50
2022-12-17T03:25:38.170Z,-3.40
2022-12-17T03:28:24.498Z,-3.50
2022-12-17T03:31:10.147Z,-3.40
2022-12-17T03:33:57.478Z,-3.50
2022-12-17T03:36:42.752Z,-3.50
2022-12-17T03:39:28.156Z,-3.50
2022-12-17T03:42:13.554Z,-3.60
2022-12-17T03:45:00.224Z,-3.60
2022-12-17T03:47:45.805Z,-3.60
2022-12-17T03:50:32.508Z,-3.60
2022-12-17T03:53:19.320Z,-3.70
2022-12-17T03:56:04.938Z,-3.70
2022-12-17T03:58:50.295Z,-3.70
2022-12-17T04:01:35.791Z,-3.70
2022-12-17T04:04:21.515Z,-3.60
2022-12-17T04:07:08.279Z,-3.70
2022-12-17T04:09:53.876Z,-3.70
2022-12-17T04:12:39.413Z,-3.70
2022-12-17T04:15:25.910Z,-3.80
2022-12-17T04:18:11.350Z,-3.70
2022-12-17T04:20:57.170Z,-3.80
2022-12-17T04:23:44.331Z,-3.70
2022-12-17T04:26:29.690Z,-3.80
2022-12-17T04:29:15.148Z,-3.80
2022-12-17T04:32:06.153Z,-3.90
2022-12-17T04:34:51.922Z,-3.90
2022-12-17T04:37:37.417Z,-3.90
2022-12-17T04:40:28.098Z,-3.90
2022-12-17T04:43:13.567Z,-3.90
2022-12-17T04:45:59.495Z,-3.70
2022-12-17T04:48:45.070Z,-3.90
2022-12-17T04:51:30.464Z,-3.90
2022-12-17T04:54:15.903Z,-3.90
2022-12-17T04:57:04.377Z,-3.90
2022-12-17T04:59:49.658Z,-3.90
2022-12-17T05:02:42.477Z,-3.90
2022-12-17T05:05:29.060Z,-3.90
2022-12-17T05:08:15.579Z,-3.90
2022-12-17T05:11:01.377Z,-3.90
2022-12-17T05:13:48.498Z,-3.90
2022-12-17T05:16:36.472Z,-3.90
2022-12-17T05:19:21.958Z,-3.90
2022-12-17T05:22:07.264Z,-3.90
2022-12-17T05:24:52.679Z,-3.90
2022-12-17T05:27:38.004Z,-3.90
2022-12-17T05:30:26.480Z,-3.90
2022-12-17T05:33:17.962Z,-3.90
2022-12-17T05:36:03.446Z,-3.90
2022-12-17T05:38:48.945Z,-3.90
2022-12-17T05:41:34.968Z,-3.90
2022-12-17T05:44:32.516Z,-3.90
2022-12-17T05:47:19.798Z,-3.90
2022-12-17T05:50:05.396Z,-4.00
2022-12-17T05:52:50.905Z,-4.00
2022-12-17T05:55:36.458Z,-4.00
2022-12-17T05:58:25.446Z,-4.00
2022-12-17T06:01:14.444Z,-4.00
2022-12-17T06:04:01.345Z,-4.00
2022-12-17T06:06:47.235Z,-4.00
2022-12-17T06:09:32.694Z,-4.00
2022-12-17T06:12:18.645Z,-4.00
2022-12-17T06:15:04.111Z,-4.00
2022-12-17T06:17:49.900Z,-4.00
2022-12-17T06:20:37.010Z,-4.00
2022-12-17T06:23:24.326Z,-4.00
2022-12-17T06:26:12.077Z,-4.00
2022-12-17T06:28:57.646Z,-4.00
2022-12-17T06:31:43.185Z,-4.00
2022-12-17T06:34:28.746Z,-4.00
2022-12-17T06:37:21.375Z,-4.00
2022-12-17T06:40:07.020Z,-4.00
2022-12-17T06:42:52.501Z,-4.00
2022-12-17T06:45:38.585Z,-4.00
2022-12-17T06:48:26.365Z,-3.90
2022-12-17T06:51:12.228Z,-4.00
2022-12-17T06:53:59.841Z,-4.00
2022-12-17T06:56:45.246Z,-4.10
2022-12-17T06:59:30.691Z,-4.10
2022-12-17T07:02:16.423Z,-4.00
2022-12-17T07:05:07.328Z,-4.00
2022-12-17T07:07:52.918Z,-4.00
2022-12-17T07:10:41.003Z,-4.00
2022-12-17T07:13:27.446Z,-4.00
2022-12-17T07:16:14.910Z,-3.90
2022-12-17T07:19:00.481Z,-4.00
2022-12-17T07:21:45.973Z,-4.00
2022-12-17T07:24:31.395Z,-3.90
2022-12-17T07:27:18.325Z,-3.90
2022-12-17T07:30:03.709Z,-3.90
2022-12-17T07:32:45.765Z,-3.90
2022-12-17T07:35:31.087Z,-4.00
2022-12-17T07:38:20.997Z,-3.90
2022-12-17T07:41:06.413Z,-4.00
2022-12-17T07:43:53.712Z,-4.00
2022-12-17T07:46:36.097Z,-4.00
2022-12-17T07:49:25.616Z,-3.90
2022-12-17T07:52:11.704Z,-4.00
2022-12-17T07:54:57.259Z,-4.00
2022-12-17T07:57:43.363Z,-4.00
2022-12-17T08:00:31.849Z,-3.90
2022-12-17T08:03:18.696Z,-3.90
2022-12-17T08:06:04.270Z,-3.90
2022-12-17T08:08:50.032Z,-3.90
2022-12-17T08:11:36.752Z,-3.90
2022-12-17T08:14:22.175Z,-3.70
2022-12-17T08:17:23.782Z,-3.90
2022-12-17T08:20:10.111Z,-3.90
2022-12-17T08:22:55.429Z,-4.00
2022-12-17T08:25:40.858Z,-3.90
2022-12-17T08:28:49.649Z,-4.00
2022-12-17T08:31:34.135Z,-3.90
2022-12-17T08:34:29.661Z,-3.90
2022-12-17T08:37:15.076Z,-3.90
2022-12-17T08:40:00.623Z,-3.90
2022-12-17T08:42:46.116Z,-3.90
2022-12-17T08:45:31.624Z,-3.80
2022-12-17T08:48:23.962Z,-3.90
2022-12-17T08:51:10.889Z,-4.00
2022-12-17T08:53:56.152Z,-3.90
2022-12-17T08:56:41.607Z,-3.90
2022-12-17T08:59:27.069Z,-3.90
2022-12-17T09:02:12.929Z,-3.90
2022-12-17T09:04:59.104Z,-4.00
2022-12-17T09:07:46.214Z,-3.90
2022-12-17T09:10:32.039Z,-4.00
2022-12-17T09:13:20.525Z,-3.90
2022-12-17T09:16:10.817Z,-3.90
2022-12-17T09:19:02.601Z,-3.90
2022-12-17T09:21:49.964Z,-3.90
2022-12-17T09:24:37.226Z,-4.00
2022-12-17T09:27:23.398Z,-4.00
2022-12-17T09:30:17.776Z,-4.10
2022-12-17T09:33:03.683Z,-4.10
2022-12-17T09:35:49.657Z,-4.10
2022-12-17T09:38:36.038Z,-4.20
2022-12-17T09:41:37.591Z,-4.10
2022-12-17T09:44:32.559Z,-4.20
2022-12-17T09:47:27.271Z,-4.20
2022-12-17T09:50:13.191Z,-4.20
2022-12-17T09:53:00.441Z,-4.10
2022-12-17T09:55:50.237Z,-4.10
2022-12-17T09:58:42.305Z,-4.10
2022-12-17T10:01:35.264Z,-4.10
2022-12-17T10:04:22.304Z,-4.00
2022-12-17T10:07:08.338Z,-4.10
2022-12-17T10:09:54.074Z,-4.10
2022-12-17T10:12:40.222Z,-4.00
2022-12-17T10:15:33.103Z,-4.00
2022-12-17T10:18:25.264Z,-4.10
2022-12-17T10:21:16.458Z,-4.10
2022-12-17T10:24:02.261Z,-4.10
2022-12-17T10:26:49.646Z,-4.00
2022-12-17T10:29:37.011Z,-4.00
2022-12-17T10:32:36.861Z,-4.00
2022-12-17T10:35:27.905Z,-4.10
2022-12-17T10:38:13.446Z,-4.00
2022-12-17T10:41:00.561Z,-3.90
2022-12-17T10:43:48.502Z,-3.90
2022-12-17T10:46:46.281Z,-3.90
2022-12-17T10:49:35.747Z,-3.80
2022-12-17T10:52:24.710Z,-3.80
2022-12-17T10:55:22.997Z,-4.00
2022-12-17T10:58:10.455Z,-3.90
2022-12-17T11:00:58.373Z,-4.00
2022-12-17T11:03:50.991Z,-3.90
2022-12-17T11:06:43.080Z,-3.80
2022-12-17T11:09:48.261Z,-3.90
2022-12-17T11:12:36.373Z,-3.90
2022-12-17T11:15:39.671Z,-4.00
2022-12-17T11:18:29.875Z,-3.90
2022-12-17T11:21:21.310Z,-3.90
2022-12-17T11:24:09.410Z,-3.80
2022-12-17T11:26:57.979Z,-3.90
2022-12-17T11:29:43.430Z,-4.00
2022-12-17T11:32:53.692Z,-4.10
2022-12-17T11:35:44.214Z,-4.10
2022-12-17T11:38:49.993Z,-4.10
2022-12-17T11:41:45.779Z,-4.00
2022-12-17T11:44:55.661Z,-4.10
2022-12-17T11:47:51.758Z,-4.10
2022-12-17T11:50:45.518Z,-4.10
2022-12-17T11:53:44.565Z,-4.10
2022-12-17T11:56:38.268Z,-4.20
2022-12-17T11:59:47.933Z,-4.20
2022-12-17T12:02:58.422Z,-4.20
2022-12-17T12:05:56.318Z,-4.30
2022-12-17T12:08:45.449Z,-4.30
2022-12-17T12:11:44.026Z,-4.30
2022-12-17T12:14:42.498Z,-4.30
2022-12-17T12:17:41.941Z,-4.30
2022-12-17T12:20:51.522Z,-4.30
2022-12-17T12:23:55.674Z,-4.40
2022-12-17T12:26:53.066Z,-4.30
2022-12-17T12:30:01.555Z,-4.30
2022-12-17T12:40:43.505Z,-4.30
2022-12-17T13:00:04.773Z,-4.30
2022-12-17T13:04:10.823Z,-4.10
2022-12-17T13:10:30.308Z,-4.30
2022-12-17T13:17:45.522Z,-4.10
2022-12-17T13:21:18.756Z,-4.00
2022-12-17T13:24:58.854Z,-4.30
2022-12-17T13:29:06.642Z,-4.40
2022-12-17T13:31:57.735Z,-4.40
2022-12-17T13:34:58.907Z,-4.50
2022-12-17T13:55:54.573Z,-4.60
2022-12-17T13:58:30.889Z,-4.40
2022-12-17T14:01:10.540Z,-4.70
2022-12-17T14:04:05.278Z,-4.70
2022-12-17T14:06:33.506Z,-4.70
2022-12-17T14:09:02.402Z,-4.80
2022-12-17T14:11:50.289Z,-4.70
2022-12-17T14:14:28.335Z,-4.80
2022-12-17T14:17:03.624Z,-4.90
2022-12-17T14:19:40.189Z,-4.90
2022-12-17T14:22:10.816Z,-4.80
2022-12-17T14:24:40.453Z,-4.90
2022-12-17T14:27:25.696Z,-5.00
2022-12-17T14:29:57.109Z,-4.90
2022-12-17T14:32:35.285Z,-5.00
2022-12-17T14:35:07.702Z,-5.00
2022-12-17T14:37:36.274Z,-5.00
2022-12-17T14:40:06.511Z,-5.00
2022-12-17T14:42:39.358Z,-5.00
2022-12-17T14:45:24.051Z,-5.00
2022-12-17T14:48:04.499Z,-5.00
2022-12-17T14:50:34.623Z,-5.00
2022-12-17T14:53:25.733Z,-5.10
2022-12-17T14:55:55.946Z,-5.10
2022-12-17T14:58:26.362Z,-5.00
2022-12-17T15:00:58.638Z,-5.00
2022-12-17T15:03:33.208Z,-5.00
2022-12-17T15:06:07.368Z,-5.00
2022-12-17T15:08:37.958Z,-5.10
2022-12-17T15:11:06.889Z,-5.10
2022-12-17T15:13:37.037Z,-5.10
2022-12-17T15:16:06.077Z,-5.20
2022-12-17T15:18:36.215Z,-5.20
2022-12-17T15:21:06.046Z,-5.10
2022-12-17T15:23:34.581Z,-5.20
2022-12-17T15:26:04.073Z,-5.20
2022-12-17T15:28:34.626Z,-5.30
2022-12-17T15:31:03.378Z,-5.20
2022-12-17T15:33:32.528Z,-5.20
2022-12-17T15:36:02.247Z,-5.20
2022-12-17T15:38:30.643Z,-5.20
2022-12-17T15:41:01.491Z,-5.20
2022-12-17T15:43:28.812Z,-5.30
2022-12-17T15:46:02.597Z,-5.30
2022-12-17T15:48:31.303Z,-5.30
2022-12-17T15:51:03.013Z,-5.30
2022-12-17T15:53:31.625Z,-5.30
2022-12-17T15:56:01.540Z,-5.40
2022-12-17T15:58:30.090Z,-5.40
2022-12-17T16:00:58.554Z,-5.40
2022-12-17T16:03:26.984Z,-5.40
2022-12-17T16:05:55.450Z,-5.30
2022-12-17T16:08:25.407Z,-5.40
2022-12-17T16:10:53.743Z,-5.50
2022-12-17T16:13:22.057Z,-5.40
2022-12-17T16:16:00.872Z,-5.60
2022-12-17T16:18:32.332Z,-5.60
2022-12-17T16:21:04.499Z,-5.60
2022-12-17T16:23:34.793Z,-5.60
2022-12-17T16:26:05.466Z,-5.60
2022-12-17T16:28:34.707Z,-5.70
2022-12-17T16:31:04.993Z,-5.80
2022-12-17T16:33:35.707Z,-5.70
2022-12-17T16:36:05.036Z,-5.70
2022-12-17T16:38:35.650Z,-5.70
2022-12-17T16:41:05.317Z,-5.80
2022-12-17T16:43:35.401Z,-5.80
2022-12-17T16:46:09.111Z,-5.80
2022-12-17T16:48:41.014Z,-5.80
2022-12-17T16:51:21.476Z,-5.80
2022-12-17T16:53:55.592Z,-5.70
2022-12-17T16:56:25.814Z,-5.70
2022-12-17T16:58:54.582Z,-5.70
2022-12-17T17:01:24.645Z,-5.70
2022-12-17T17:03:53.568Z,-5.80
2022-12-17T17:06:22.675Z,-5.70
2022-12-17T17:08:51.516Z,-5.70
2022-12-17T17:11:22.977Z,-5.70
2022-12-17T17:13:52.507Z,-5.80
2022-12-17T17:16:22.961Z,-5.70
2022-12-17T17:18:51.901Z,-5.70
2022-12-17T17:21:30.798Z,-5.80
2022-12-17T17:24:01.439Z,-5.70
2022-12-17T17:26:33.398Z,-5.80
2022-12-17T17:29:02.067Z,-5.80
2022-12-17T17:34:19.142Z,-5.70
2022-12-17T17:36:47.353Z,-5.80
2022-12-17T17:39:15.594Z,-5.70
2022-12-17T17:41:45.152Z,-5.70
2022-12-17T17:44:15.158Z,-5.80
2022-12-17T17:46:43.801Z,-5.70
2022-12-17T17:49:12.718Z,-5.80
2022-12-17T17:54:31.799Z,-5.80
2022-12-17T17:57:01.412Z,-5.60
2022-12-17T17:59:33.768Z,-5.80
2022-12-17T18:02:03.667Z,-5.80
2022-12-17T18:04:33.149Z,-5.80
2022-12-17T18:07:25.169Z,-5.80
2022-12-17T18:09:51.062Z,-5.70
2022-12-17T18:12:38.300Z,-5.80
2022-12-17T18:15:16.764Z,-5.90
2022-12-17T18:17:47.215Z,-5.80
2022-12-17T18:20:15.554Z,-5.90
2022-12-17T18:22:45.958Z,-5.90
2022-12-17T18:25:14.692Z,-5.90
2022-12-17T18:27:44.387Z,-5.90
2022-12-17T18:30:13.538Z,-5.90
2022-12-17T18:32:42.601Z,-5.90
2022-12-17T18:35:11.288Z,-5.90
2022-12-17T18:37:39.768Z,-5.90
2022-12-17T18:40:09.202Z,-6.00
2022-12-17T18:42:55.041Z,-6.00
2022-12-17T18:45:24.715Z,-5.90
2022-12-17T18:47:52.905Z,-5.90
2022-12-17T18:50:21.098Z,-6.00
2022-12-17T18:52:49.243Z,-6.00
2022-12-17T18:55:17.745Z,-5.90
2022-12-17T18:57:46.047Z,-5.90
2022-12-17T19:00:15.519Z,-5.90
2022-12-17T19:02:45.463Z,-5.90
2022-12-17T19:05:13.787Z,-5.80
2022-12-17T19:07:41.953Z,-5.80
2022-12-17T19:10:11.948Z,-5.80
2022-12-17T19:12:40.138Z,-5.80
2022-12-17T19:15:09.613Z,-5.80
2022-12-17T19:17:37.819Z,-5.80
2022-12-17T19:20:08.725Z,-5.80
2022-12-17T19:22:36.974Z,-5.90
2022-12-17T19:25:05.704Z,-5.80
2022-12-17T19:27:35.002Z,-5.80
2022-12-17T19:30:03.222Z,-5.80
2022-12-17T19:32:31.592Z,-5.80
2022-12-17T19:34:59.799Z,-5.70
2022-12-17T19:37:29.367Z,-5.70
2022-12-17T19:39:57.560Z,-5.70
2022-12-17T19:42:25.829Z,-5.70
2022-12-17T19:44:55.083Z,-5.70
2022-12-17T19:47:24.637Z,-5.70
2022-12-17T19:49:52.850Z,-5.70
2022-12-17T19:52:29.356Z,-5.70
2022-12-17T19:55:13.504Z,-5.70
2022-12-17T19:57:45.165Z,-5.50
2022-12-17T20:00:14.342Z,-5.70
2022-12-17T20:02:47.626Z,-5.70
2022-12-17T20:05:17.647Z,-5.50
2022-12-17T20:07:46.143Z,-5.60
2022-12-17T20:10:20.121Z,-5.60
2022-12-17T20:12:58.082Z,-5.50
2022-12-17T20:15:26.695Z,-5.40
2022-12-17T20:18:02.361Z,-5.40
2022-12-17T20:20:43.502Z,-5.50
2022-12-17T20:23:14.458Z,-5.50
2022-12-17T20:25:45.539Z,-5.30
2022-12-17T20:28:14.112Z,-5.50
2022-12-17T20:30:42.551Z,-5.40
2022-12-17T20:33:13.040Z,-5.50
2022-12-17T20:35:41.901Z,-5.40
2022-12-17T20:38:12.256Z,-5.50
2022-12-17T20:40:46.913Z,-5.40
2022-12-17T20:43:16.931Z,-5.20
2022-12-17T20:45:52.965Z,-5.40
2022-12-17T20:48:23.971Z,-5.30
2022-12-17T20:50:57.916Z,-5.40
2022-12-17T20:53:26.700Z,-5.30
2022-12-17T20:56:02.079Z,-5.40
2022-12-17T20:58:33.252Z,-5.30
2022-12-17T21:01:09.258Z,-5.30
2022-12-17T21:03:38.184Z,-5.30
2022-12-17T21:06:13.120Z,-5.30
2022-12-17T21:08:49.309Z,-5.20
2022-12-17T21:11:24.500Z,-5.30
2022-12-17T21:13:56.176Z,-5.30
2022-12-17T21:16:37.991Z,-5.30
2022-12-17T21:19:09.688Z,-5.30
2022-12-17T21:21:44.022Z,-5.30
2022-12-17T21:24:16.044Z,-5.20
2022-12-17T21:26:48.413Z,-5.20
2022-12-17T21:29:19.923Z,-5.20
2022-12-17T21:31:54.399Z,-5.20
2022-12-17T21:34:32.052Z,-5.20
2022-12-17T21:37:01.802Z,-5.20
2022-12-17T21:39:32.124Z,-5.10
2022-12-17T21:42:22.624Z,-5.10
2022-12-17T21:44:57.362Z,-5.20
2022-12-17T21:47:31.337Z,-5.20
2022-12-17T21:49:59.745Z,-5.20
2022-12-17T21:52:30.163Z,-5.10
2022-12-17T21:55:02.408Z,-5.00
2022-12-17T21:57:33.908Z,-5.10
2022-12-17T22:00:03.757Z,-5.20
2022-12-17T22:02:37.811Z,-5.00
2022-12-17T22:05:08.435Z,-5.10
2022-12-17T22:07:42.778Z,-5.10
2022-12-17T22:10:46.049Z,-5.00
2022-12-17T22:13:29.587Z,-5.10
2022-12-17T22:16:01.446Z,-5.00
2022-12-17T22:18:29.999Z,-5.00
2022-12-17T22:21:02.214Z,-5.00
2022-12-17T22:23:42.228Z,-5.00
2022-12-17T22:26:27.773Z,-5.00
2022-12-17T22:29:02.724Z,-5.10
2022-12-17T22:32:06.506Z,-5.10
2022-12-17T22:36:11.370Z,-5.00
2022-12-17T22:41:54.962Z,-5.10
2022-12-17T22:44:31.720Z,-5.10
2022-12-17T22:44:38.632Z,-5.10
2022-12-17T22:46:20.346Z,-5.10
2022-12-17T22:48:53.469Z,-5.10
2022-12-17T22:51:42.931Z,-4.90
2022-12-17T22:54:15.198Z,-5.20
2022-12-17T22:56:56.406Z,-5.00
2022-12-17T22:59:38.749Z,-5.00
2022-12-17T23:02:09.248Z,-5.00
2022-12-17T23:04:42.581Z,-5.10
2022-12-17T23:07:11.057Z,-5.00
2022-12-17T23:09:41.913Z,-5.10
2022-12-17T23:12:26.173Z,-5.10
2022-12-17T23:14:57.536Z,-5.10
2022-12-17T23:17:29.099Z,-5.00
2022-12-17T23:20:00.927Z,-5.10
2022-12-17T23:22:29.523Z,-5.20
2022-12-17T23:24:58.005Z,-5.20
2022-12-17T23:27:27.620Z,-5.20
2022-12-17T23:29:57.993Z,-5.30
2022-12-17T23:32:26.565Z,-5.20
2022-12-17T23:35:01.104Z,-5.30
2022-12-17T23:37:35.175Z,-5.30
2022-12-17T23:40:14.185Z,-5.30
2022-12-17T23:42:44.845Z,-5.30
2022-12-17T23:45:14.971Z,-5.30
2022-12-17T23:47:43.428Z,-5.30
2022-12-17T23:50:13.245Z,-5.30
2022-12-17T23:52:44.707Z,-5.20
2022-12-17T23:55:15.199Z,-5.10
2022-12-17T23:57:49.256Z,-5.20
